sensor_id;sensor_type;location;lat;lon;timestamp;pressure;altitude;pressure_sealevel;temperature;humidity
58622;BME280;44389;51.578;5.456;2022-11-20T00:01:17;101225.19;;;-4.44;100.00
58622;BME280;44389;51.578;5.456;2022-11-20T00:03:42;101228.72;;;-4.51;100.00
58622;BME280;44389;51.578;5.456;2022-11-20T00:06:14;101225.34;;;-4.34;100.00
58622;BME280;44389;51.578;5.456;2022-11-20T00:08:39;101227.84;;;-4.34;100.00
58622;BME280;44389;51.578;5.456;2022-11-20T00:11:13;101227.09;;;-4.33;100.00
58622;BME280;44389;51.578;5.456;2022-11-20T00:13:39;101223.81;;;-4.23;100.00
58622;BME280;44389;51.578;5.456;2022-11-20T00:16:06;101218.63;;;-4.16;100.00
58622;BME280;44389;51.578;5.456;2022-11-20T00:18:32;101223.94;;;-4.13;100.00
58622;BME280;44389;51.578;5.456;2022-11-20T00:21:09;101222.75;;;-4.16;100.00
58622;BME280;44389;51.578;5.456;2022-11-20T00:23:35;101225.88;;;-4.27;100.00
58622;BME280;44389;51.578;5.456;2022-11-20T00:26:05;101228.84;;;-4.23;100.00
58622;BME280;44389;51.578;5.456;2022-11-20T00:28:31;101226.06;;;-4.43;100.00
58622;BME280;44389;51.578;5.456;2022-11-20T00:31:04;101233.75;;;-4.33;100.00
58622;BME280;44389;51.578;5.456;2022-11-20T00:33:30;101231.84;;;-4.36;100.00
58622;BME280;44389;51.578;5.456;2022-11-20T00:36:05;101232.88;;;-4.34;100.00
58622;BME280;44389;51.578;5.456;2022-11-20T00:38:32;101229.50;;;-4.52;100.00
58622;BME280;44389;51.578;5.456;2022-11-20T00:40:59;101221.50;;;-4.39;100.00
58622;BME280;44389;51.578;5.456;2022-11-20T00:43:25;101224.28;;;-4.44;100.00
58622;BME280;44389;51.578;5.456;2022-11-20T00:45:59;101226.38;;;-4.58;100.00
58622;BME280;44389;51.578;5.456;2022-11-20T00:48:24;101220.75;;;-4.55;100.00
58622;BME280;44389;51.578;5.456;2022-11-20T00:50:50;101223.41;;;-4.45;100.00
58622;BME280;44389;51.578;5.456;2022-11-20T00:53:15;101224.16;;;-4.46;100.00
58622;BME280;44389;51.578;5.456;2022-11-20T00:55:40;101224.00;;;-4.48;100.00
58622;BME280;44389;51.578;5.456;2022-11-20T00:58:06;101219.84;;;-4.47;100.00
58622;BME280;44389;51.578;5.456;2022-11-20T01:00:31;101226.22;;;-4.51;100.00
58622;BME280;44389;51.578;5.456;2022-11-20T01:02:56;101215.59;;;-4.66;100.00
58622;BME280;44389;51.578;5.456;2022-11-20T01:05:22;101218.25;;;-4.64;100.00
58622;BME280;44389;51.578;5.456;2022-11-20T01:07:47;101221.63;;;-4.55;100.00
58622;BME280;44389;51.578;5.456;2022-11-20T01:10:12;101218.97;;;-4.56;100.00
58622;BME280;44389;51.578;5.456;2022-11-20T01:12:37;101216.19;;;-4.68;100.00
58622;BME280;44389;51.578;5.456;2022-11-20T01:15:03;101224.44;;;-4.78;100.00
58622;BME280;44389;51.578;5.456;2022-11-20T01:17:28;101225.47;;;-4.93;100.00
58622;BME280;44389;51.578;5.456;2022-11-20T01:19:55;101226.38;;;-4.75;100.00
58622;BME280;44389;51.578;5.456;2022-11-20T01:22:20;101218.09;;;-4.83;100.00
58622;BME280;44389;51.578;5.456;2022-11-20T01:24:46;101214.53;;;-5.03;100.00
58622;BME280;44389;51.578;5.456;2022-11-20T01:27:11;101220.00;;;-4.98;100.00
58622;BME280;44389;51.578;5.456;2022-11-20T01:29:36;101218.53;;;-4.96;100.00
58622;BME280;44389;51.578;5.456;2022-11-20T01:32:02;101215.72;;;-4.90;100.00
58622;BME280;44389;51.578;5.456;2022-11-20T01:34:27;101217.94;;;-4.85;100.00
58622;BME280;44389;51.578;5.456;2022-11-20T01:36:52;101219.88;;;-4.82;100.00
58622;BME280;44389;51.578;5.456;2022-11-20T01:39:21;101209.50;;;-4.94;100.00
58622;BME280;44389;51.578;5.456;2022-11-20T01:41:48;101209.66;;;-4.92;100.00
58622;BME280;44389;51.578;5.456;2022-11-20T01:44:56;101214.81;;;-5.00;100.00
58622;BME280;44389;51.578;5.456;2022-11-20T01:47:43;101213.34;;;-5.06;100.00
58622;BME280;44389;51.578;5.456;2022-11-20T01:50:20;101214.94;;;-5.16;100.00
58622;BME280;44389;51.578;5.456;2022-11-20T01:52:55;101219.50;;;-5.20;100.00
58622;BME280;44389;51.578;5.456;2022-11-20T01:55:26;101214.06;;;-5.16;100.00
58622;BME280;44389;51.578;5.456;2022-11-20T01:57:52;101213.47;;;-5.22;100.00
58622;BME280;44389;51.578;5.456;2022-11-20T02:00:19;101210.97;;;-5.22;100.00
58622;BME280;44389;51.578;5.456;2022-11-20T02:02:49;101217.19;;;-5.19;100.00
58622;BME280;44389;51.578;5.456;2022-11-20T02:05:28;101215.41;;;-5.11;100.00
58622;BME280;44389;51.578;5.456;2022-11-20T02:07:57;101215.53;;;-5.18;100.00
58622;BME280;44389;51.578;5.456;2022-11-20T02:10:24;101221.00;;;-5.22;100.00
58622;BME280;44389;51.578;5.456;2022-11-20T02:12:50;101208.75;;;-5.28;100.00
58622;BME280;44389;51.578;5.456;2022-11-20T02:15:34;101203.84;;;-5.18;100.00
58622;BME280;44389;51.578;5.456;2022-11-20T02:18:00;101204.44;;;-5.20;100.00
58622;BME280;44389;51.578;5.456;2022-11-20T02:20:26;101199.72;;;-5.26;100.00
58622;BME280;44389;51.578;5.456;2022-11-20T02:23:00;101207.53;;;-5.32;100.00
58622;BME280;44389;51.578;5.456;2022-11-20T02:25:28;101203.41;;;-5.22;100.00
58622;BME280;44389;51.578;5.456;2022-11-20T02:27:55;101194.69;;;-5.26;100.00
58622;BME280;44389;51.578;5.456;2022-11-20T02:30:21;101197.78;;;-5.29;100.00
58622;BME280;44389;51.578;5.456;2022-11-20T02:32:46;101196.91;;;-5.20;100.00
58622;BME280;44389;51.578;5.456;2022-11-20T02:37:43;101192.47;;;-5.32;100.00
58622;BME280;44389;51.578;5.456;2022-11-20T02:40:10;101192.75;;;-5.29;100.00
58622;BME280;44389;51.578;5.456;2022-11-20T02:42:36;101195.44;;;-5.18;100.00
58622;BME280;44389;51.578;5.456;2022-11-20T02:45:02;101199.88;;;-5.16;100.00
58622;BME280;44389;51.578;5.456;2022-11-20T02:47:27;101194.41;;;-5.12;100.00
58622;BME280;44389;51.578;5.456;2022-11-20T02:49:53;101188.94;;;-4.99;100.00
58622;BME280;44389;51.578;5.456;2022-11-20T02:52:18;101190.44;;;-5.01;100.00
58622;BME280;44389;51.578;5.456;2022-11-20T02:54:43;101192.06;;;-4.92;100.00
58622;BME280;44389;51.578;5.456;2022-11-20T02:57:09;101196.78;;;-4.78;100.00
58622;BME280;44389;51.578;5.456;2022-11-20T02:59:34;101183.16;;;-4.71;100.00
58622;BME280;44389;51.578;5.456;2022-11-20T03:02:00;101193.53;;;-4.59;100.00
58622;BME280;44389;51.578;5.456;2022-11-20T03:04:25;101190.56;;;-4.55;100.00
58622;BME280;44389;51.578;5.456;2022-11-20T03:06:50;101181.09;;;-4.49;100.00
58622;BME280;44389;51.578;5.456;2022-11-20T03:09:15;101184.03;;;-4.36;100.00
58622;BME280;44389;51.578;5.456;2022-11-20T03:11:41;101182.84;;;-4.39;100.00
58622;BME280;44389;51.578;5.456;2022-11-20T03:14:06;101182.25;;;-4.37;100.00
58622;BME280;44389;51.578;5.456;2022-11-20T03:16:32;101179.56;;;-4.30;100.00
58622;BME280;44389;51.578;5.456;2022-11-20T03:18:57;101178.53;;;-4.32;100.00
58622;BME280;44389;51.578;5.456;2022-11-20T03:21:23;101181.91;;;-4.22;100.00
58622;BME280;44389;51.578;5.456;2022-11-20T03:23:48;101177.22;;;-4.37;100.00
58622;BME280;44389;51.578;5.456;2022-11-20T03:26:16;101183.03;;;-4.47;100.00
58622;BME280;44389;51.578;5.456;2022-11-20T03:28:47;101182.56;;;-4.51;100.00
58622;BME280;44389;51.578;5.456;2022-11-20T03:31:14;101175.34;;;-4.57;100.00
58622;BME280;44389;51.578;5.456;2022-11-20T03:33:41;101175.03;;;-4.60;100.00
58622;BME280;44389;51.578;5.456;2022-11-20T03:36:09;101173.41;;;-4.59;100.00
58622;BME280;44389;51.578;5.456;2022-11-20T03:38:36;101168.38;;;-4.59;100.00
58622;BME280;44389;51.578;5.456;2022-11-20T03:41:04;101171.03;;;-4.58;100.00
58622;BME280;44389;51.578;5.456;2022-11-20T03:43:30;101160.66;;;-4.61;100.00
58622;BME280;44389;51.578;5.456;2022-11-20T03:45:56;101154.19;;;-4.76;100.00
58622;BME280;44389;51.578;5.456;2022-11-20T03:48:21;101157.88;;;-4.73;100.00
58622;BME280;44389;51.578;5.456;2022-11-20T03:50:47;101156.25;;;-4.64;100.00
58622;BME280;44389;51.578;5.456;2022-11-20T03:53:13;101154.50;;;-4.82;100.00
58622;BME280;44389;51.578;5.456;2022-11-20T03:55:38;101154.03;;;-4.78;100.00
58622;BME280;44389;51.578;5.456;2022-11-20T03:58:04;101149.19;;;-4.85;100.00
58622;BME280;44389;51.578;5.456;2022-11-20T04:00:29;101144.44;;;-4.82;100.00
58622;BME280;44389;51.578;5.456;2022-11-20T04:02:58;101145.63;;;-4.87;100.00
58622;BME280;44389;51.578;5.456;2022-11-20T04:05:23;101141.03;;;-4.91;100.00
58622;BME280;44389;51.578;5.456;2022-11-20T04:07:49;101140.31;;;-4.90;100.00
58622;BME280;44389;51.578;5.456;2022-11-20T04:10:14;101138.34;;;-4.75;100.00
58622;BME280;44389;51.578;5.456;2022-11-20T04:12:39;101132.31;;;-4.86;100.00
58622;BME280;44389;51.578;5.456;2022-11-20T04:15:05;101141.03;;;-4.91;100.00
58622;BME280;44389;51.578;5.456;2022-11-20T04:17:30;101139.09;;;-4.76;100.00
58622;BME280;44389;51.578;5.456;2022-11-20T04:19:55;101134.38;;;-4.82;100.00
58622;BME280;44389;51.578;5.456;2022-11-20T04:22:21;101136.75;;;-4.84;100.00
58622;BME280;44389;51.578;5.456;2022-11-20T04:24:46;101143.53;;;-4.74;100.00
58622;BME280;44389;51.578;5.456;2022-11-20T04:27:11;101138.69;;;-4.81;100.00
58622;BME280;44389;51.578;5.456;2022-11-20T04:29:36;101127.88;;;-4.80;100.00
58622;BME280;44389;51.578;5.456;2022-11-20T04:32:02;101128.44;;;-4.74;100.00
58622;BME280;44389;51.578;5.456;2022-11-20T04:34:27;101121.03;;;-4.64;100.00
58622;BME280;44389;51.578;5.456;2022-11-20T04:36:52;101129.16;;;-4.57;100.00
58622;BME280;44389;51.578;5.456;2022-11-20T04:39:17;101129.00;;;-4.50;100.00
58622;BME280;44389;51.578;5.456;2022-11-20T04:41:43;101130.13;;;-4.38;100.00
58622;BME280;44389;51.578;5.456;2022-11-20T04:44:08;101131.63;;;-4.31;100.00
58622;BME280;44389;51.578;5.456;2022-11-20T04:46:36;101132.19;;;-4.25;100.00
58622;BME280;44389;51.578;5.456;2022-11-20T04:49:01;101125.53;;;-4.24;100.00
58622;BME280;44389;51.578;5.456;2022-11-20T04:51:27;101127.25;;;-4.15;100.00
58622;BME280;44389;51.578;5.456;2022-11-20T04:53:53;101125.00;;;-4.03;100.00
58622;BME280;44389;51.578;5.456;2022-11-20T04:56:18;101120.41;;;-4.07;100.00
58622;BME280;44389;51.578;5.456;2022-11-20T04:58:44;101116.88;;;-4.09;100.00
58622;BME280;44389;51.578;5.456;2022-11-20T05:01:14;101117.00;;;-3.99;100.00
58622;BME280;44389;51.578;5.456;2022-11-20T05:03:41;101114.06;;;-4.12;100.00
58622;BME280;44389;51.578;5.456;2022-11-20T05:06:08;101114.06;;;-4.12;100.00
58622;BME280;44389;51.578;5.456;2022-11-20T05:08:34;101119.91;;;-4.22;100.00
58622;BME280;44389;51.578;5.456;2022-11-20T05:11:03;101111.91;;;-4.26;100.00
58622;BME280;44389;51.578;5.456;2022-11-20T05:13:29;101106.72;;;-4.19;100.00
58622;BME280;44389;51.578;5.456;2022-11-20T05:15:54;101101.69;;;-4.19;100.00
58622;BME280;44389;51.578;5.456;2022-11-20T05:18:19;101098.75;;;-4.33;100.00
58622;BME280;44389;51.578;5.456;2022-11-20T05:20:45;101101.38;;;-4.22;100.00
58622;BME280;44389;51.578;5.456;2022-11-20T05:23:10;101097.38;;;-4.20;100.00
58622;BME280;44389;51.578;5.456;2022-11-20T05:25:35;101097.47;;;-4.10;100.00
58622;BME280;44389;51.578;5.456;2022-11-20T05:28:01;101091.72;;;-4.09;100.00
58622;BME280;44389;51.578;5.456;2022-11-20T05:30:26;101096.53;;;-4.02;100.00
58622;BME280;44389;51.578;5.456;2022-11-20T05:32:51;101094.72;;;-3.94;100.00
58622;BME280;44389;51.578;5.456;2022-11-20T05:35:16;101088.81;;;-3.94;100.00
58622;BME280;44389;51.578;5.456;2022-11-20T05:37:42;101089.56;;;-3.95;100.00
58622;BME280;44389;51.578;5.456;2022-11-20T05:40:08;101090.81;;;-3.82;100.00
58622;BME280;44389;51.578;5.456;2022-11-20T05:42:33;101091.09;;;-3.78;100.00
58622;BME280;44389;51.578;5.456;2022-11-20T05:45:00;101097.72;;;-3.70;100.00
58622;BME280;44389;51.578;5.456;2022-11-20T05:47:27;101096.09;;;-3.70;100.00
58622;BME280;44389;51.578;5.456;2022-11-20T05:49:52;101104.69;;;-3.68;100.00
58622;BME280;44389;51.578;5.456;2022-11-20T05:52:18;101101.13;;;-3.70;100.00
58622;BME280;44389;51.578;5.456;2022-11-20T05:54:43;101105.25;;;-3.61;100.00
58622;BME280;44389;51.578;5.456;2022-11-20T05:57:08;101118.66;;;-3.52;100.00
58622;BME280;44389;51.578;5.456;2022-11-20T05:59:33;101120.50;;;-3.60;100.00
58622;BME280;44389;51.578;5.456;2022-11-20T06:01:59;101124.50;;;-3.62;100.00
58622;BME280;44389;51.578;5.456;2022-11-20T06:04:24;101124.19;;;-3.56;100.00
58622;BME280;44389;51.578;5.456;2022-11-20T06:06:49;101126.22;;;-3.52;100.00
58622;BME280;44389;51.578;5.456;2022-11-20T06:09:15;101128.25;;;-3.48;100.00
58622;BME280;44389;51.578;5.456;2022-11-20T06:11:40;101126.81;;;-3.36;100.00
58622;BME280;44389;51.578;5.456;2022-11-20T06:14:05;101125.53;;;-3.41;100.00
58622;BME280;44389;51.578;5.456;2022-11-20T06:16:31;101125.69;;;-3.39;100.00
58622;BME280;44389;51.578;5.456;2022-11-20T06:18:56;101134.13;;;-3.39;100.00
58622;BME280;44389;51.578;5.456;2022-11-20T06:21:22;101125.81;;;-3.38;100.00
58622;BME280;44389;51.578;5.456;2022-11-20T06:23:49;101128.13;;;-3.31;100.00
58622;BME280;44389;51.578;5.456;2022-11-20T06:28:41;101120.31;;;-3.34;100.00
58622;BME280;44389;51.578;5.456;2022-11-20T06:31:07;101119.22;;;-3.27;100.00
58622;BME280;44389;51.578;5.456;2022-11-20T06:33:34;101127.94;;;-3.23;100.00
58622;BME280;44389;51.578;5.456;2022-11-20T06:36:00;101124.53;;;-3.24;100.00
58622;BME280;44389;51.578;5.456;2022-11-20T06:38:27;101127.81;;;-3.25;100.00
58622;BME280;44389;51.578;5.456;2022-11-20T06:40:53;101115.69;;;-3.29;100.00
58622;BME280;44389;51.578;5.456;2022-11-20T06:43:18;101116.81;;;-3.25;100.00
58622;BME280;44389;51.578;5.456;2022-11-20T06:45:43;101115.59;;;-3.20;100.00
58622;BME280;44389;51.578;5.456;2022-11-20T06:48:09;101110.97;;;-3.16;100.00
58622;BME280;44389;51.578;5.456;2022-11-20T06:50:36;101111.22;;;-3.12;100.00
58622;BME280;44389;51.578;5.456;2022-11-20T06:53:03;101100.41;;;-3.11;100.00
58622;BME280;44389;51.578;5.456;2022-11-20T06:55:28;101099.53;;;-3.12;100.00
58622;BME280;44389;51.578;5.456;2022-11-20T06:57:54;101101.56;;;-3.08;100.00
58622;BME280;44389;51.578;5.456;2022-11-20T07:00:19;101093.81;;;-3.01;100.00
58622;BME280;44389;51.578;5.456;2022-11-20T07:02:44;101095.78;;;-3.07;100.00
58622;BME280;44389;51.578;5.456;2022-11-20T07:05:09;101095.03;;;-3.06;100.00
58622;BME280;44389;51.578;5.456;2022-11-20T07:07:35;101098.28;;;-3.07;100.00
58622;BME280;44389;51.578;5.456;2022-11-20T07:10:00;101097.69;;;-3.04;100.00
58622;BME280;44389;51.578;5.456;2022-11-20T07:12:25;101104.50;;;-3.03;100.00
58622;BME280;44389;51.578;5.456;2022-11-20T07:14:50;101103.13;;;-3.00;100.00
58622;BME280;44389;51.578;5.456;2022-11-20T07:17:16;101099.84;;;-2.99;100.00
58622;BME280;44389;51.578;5.456;2022-11-20T07:19:41;101101.88;;;-2.94;100.00
58622;BME280;44389;51.578;5.456;2022-11-20T07:22:08;101099.41;;;-2.84;100.00
58622;BME280;44389;51.578;5.456;2022-11-20T07:24:33;101096.88;;;-2.84;100.00
58622;BME280;44389;51.578;5.456;2022-11-20T07:26:58;101094.16;;;-2.77;100.00
58622;BME280;44389;51.578;5.456;2022-11-20T07:29:23;101087.63;;;-2.75;100.00
58622;BME280;44389;51.578;5.456;2022-11-20T07:31:49;101084.31;;;-2.74;100.00
58622;BME280;44389;51.578;5.456;2022-11-20T07:34:14;101084.59;;;-2.71;100.00
58622;BME280;44389;51.578;5.456;2022-11-20T07:36:39;101084.66;;;-2.60;100.00
58622;BME280;44389;51.578;5.456;2022-11-20T07:39:05;101079.84;;;-2.57;100.00
58622;BME280;44389;51.578;5.456;2022-11-20T07:41:30;101074.94;;;-2.56;100.00
58622;BME280;44389;51.578;5.456;2022-11-20T07:43:56;101073.94;;;-2.58;100.00
58622;BME280;44389;51.578;5.456;2022-11-20T07:46:21;101082.38;;;-2.57;100.00
58622;BME280;44389;51.578;5.456;2022-11-20T07:48:46;101077.00;;;-2.52;100.00
58622;BME280;44389;51.578;5.456;2022-11-20T07:51:12;101079.00;;;-2.47;100.00
58622;BME280;44389;51.578;5.456;2022-11-20T07:53:38;101079.38;;;-2.43;100.00
58622;BME280;44389;51.578;5.456;2022-11-20T07:56:03;101087.25;;;-2.40;100.00
58622;BME280;44389;51.578;5.456;2022-11-20T07:58:29;101085.38;;;-2.32;100.00
58622;BME280;44389;51.578;5.456;2022-11-20T08:00:55;101091.19;;;-2.23;100.00
58622;BME280;44389;51.578;5.456;2022-11-20T08:03:21;101079.19;;;-2.25;100.00
58622;BME280;44389;51.578;5.456;2022-11-20T08:05:46;101093.72;;;-2.23;100.00
58622;BME280;44389;51.578;5.456;2022-11-20T08:08:11;101085.53;;;-2.20;100.00
58622;BME280;44389;51.578;5.456;2022-11-20T08:10:37;101087.94;;;-2.11;100.00
58622;BME280;44389;51.578;5.456;2022-11-20T08:13:02;101084.78;;;-2.09;100.00
58622;BME280;44389;51.578;5.456;2022-11-20T08:15:50;101083.25;;;-2.07;100.00
58622;BME280;44389;51.578;5.456;2022-11-20T08:18:16;101086.44;;;-1.99;100.00
58622;BME280;44389;51.578;5.456;2022-11-20T08:20:42;101081.66;;;-1.96;100.00
58622;BME280;44389;51.578;5.456;2022-11-20T08:23:07;101083.91;;;-1.89;100.00
58622;BME280;44389;51.578;5.456;2022-11-20T08:25:35;101083.78;;;-1.80;100.00
58622;BME280;44389;51.578;5.456;2022-11-20T08:28:01;101069.38;;;-1.71;100.00
58622;BME280;44389;51.578;5.456;2022-11-20T08:30:27;101066.09;;;-1.70;100.00
58622;BME280;44389;51.578;5.456;2022-11-20T08:32:54;101063.34;;;-1.62;100.00
58622;BME280;44389;51.578;5.456;2022-11-20T08:35:20;101067.13;;;-1.57;100.00
58622;BME280;44389;51.578;5.456;2022-11-20T08:37:47;101079.13;;;-1.55;100.00
58622;BME280;44389;51.578;5.456;2022-11-20T08:40:12;101074.44;;;-1.50;100.00
58622;BME280;44389;51.578;5.456;2022-11-20T08:42:48;101072.81;;;-1.39;100.00
58622;BME280;44389;51.578;5.456;2022-11-20T08:45:13;101079.97;;;-1.34;100.00
58622;BME280;44389;51.578;5.456;2022-11-20T08:47:39;101075.66;;;-1.24;100.00
58622;BME280;44389;51.578;5.456;2022-11-20T08:50:04;101081.97;;;-1.19;100.00
58622;BME280;44389;51.578;5.456;2022-11-20T08:52:30;101081.19;;;-1.08;100.00
58622;BME280;44389;51.578;5.456;2022-11-20T08:54:55;101072.81;;;-0.96;100.00
58622;BME280;44389;51.578;5.456;2022-11-20T08:57:20;101072.53;;;-0.89;100.00
58622;BME280;44389;51.578;5.456;2022-11-20T08:59:46;101069.72;;;-0.82;100.00
58622;BME280;44389;51.578;5.456;2022-11-20T09:02:11;101069.91;;;-0.69;100.00
58622;BME280;44389;51.578;5.456;2022-11-20T09:04:37;101066.34;;;-0.60;100.00
58622;BME280;44389;51.578;5.456;2022-11-20T09:07:02;101058.75;;;-0.60;100.00
58622;BME280;44389;51.578;5.456;2022-11-20T09:09:28;101060.13;;;-0.54;100.00
58622;BME280;44389;51.578;5.456;2022-11-20T09:11:53;101065.34;;;-0.40;100.00
58622;BME280;44389;51.578;5.456;2022-11-20T09:14:18;101061.94;;;-0.41;100.00
58622;BME280;44389;51.578;5.456;2022-11-20T09:16:45;101071.81;;;-0.34;100.00
58622;BME280;44389;51.578;5.456;2022-11-20T09:19:10;101062.13;;;-0.27;100.00
58622;BME280;44389;51.578;5.456;2022-11-20T09:21:36;101055.63;;;-0.24;100.00
58622;BME280;44389;51.578;5.456;2022-11-20T09:24:01;101053.75;;;-0.26;100.00
58622;BME280;44389;51.578;5.456;2022-11-20T09:26:26;101053.69;;;-0.16;100.00
58622;BME280;44389;51.578;5.456;2022-11-20T09:28:51;101050.41;;;-0.15;100.00
58622;BME280;44389;51.578;5.456;2022-11-20T09:31:22;101041.03;;;-0.16;100.00
58622;BME280;44389;51.578;5.456;2022-11-20T09:33:48;101041.38;;;-0.11;100.00
58622;BME280;44389;51.578;5.456;2022-11-20T09:36:13;101042.19;;;-0.01;100.00
58622;BME280;44389;51.578;5.456;2022-11-20T09:38:38;101035.59;;;0.02;100.00
58622;BME280;44389;51.578;5.456;2022-11-20T09:41:05;101040.88;;;0.05;100.00
58622;BME280;44389;51.578;5.456;2022-11-20T09:43:52;101028.78;;;0.12;100.00
58622;BME280;44389;51.578;5.456;2022-11-20T09:46:29;101024.81;;;0.16;100.00
58622;BME280;44389;51.578;5.456;2022-11-20T09:51:59;101026.50;;;0.27;100.00
58622;BME280;44389;51.578;5.456;2022-11-20T09:54:29;101022.53;;;0.31;100.00
58622;BME280;44389;51.578;5.456;2022-11-20T09:56:59;101017.81;;;0.36;100.00
58622;BME280;44389;51.578;5.456;2022-11-20T09:59:43;101011.75;;;0.45;100.00
58622;BME280;44389;51.578;5.456;2022-11-20T10:02:30;101011.31;;;0.63;100.00
58622;BME280;44389;51.578;5.456;2022-11-20T10:05:12;101013.19;;;0.65;100.00
58622;BME280;44389;51.578;5.456;2022-11-20T10:07:53;101012.97;;;0.62;100.00
58622;BME280;44389;51.578;5.456;2022-11-20T10:10:42;101000.09;;;0.71;100.00
58622;BME280;44389;51.578;5.456;2022-11-20T10:16:26;100995.88;;;0.72;100.00
58622;BME280;44389;51.578;5.456;2022-11-20T10:22:05;100976.59;;;0.74;100.00
58622;BME280;44389;51.578;5.456;2022-11-20T10:27:52;100963.41;;;0.91;100.00
58622;BME280;44389;51.578;5.456;2022-11-20T10:30:21;100952.97;;;0.87;100.00
58622;BME280;44389;51.578;5.456;2022-11-20T10:32:52;100952.06;;;0.86;100.00
58622;BME280;44389;51.578;5.456;2022-11-20T10:35:23;100928.38;;;1.11;100.00
58622;BME280;44389;51.578;5.456;2022-11-20T10:37:55;100929.72;;;1.06;100.00
58622;BME280;44389;51.578;5.456;2022-11-20T10:42:59;100914.81;;;1.10;100.00
58622;BME280;44389;51.578;5.456;2022-11-20T10:47:55;100905.38;;;1.33;100.00
58622;BME280;44389;51.578;5.456;2022-11-20T10:50:22;100899.78;;;1.13;100.00
58622;BME280;44389;51.578;5.456;2022-11-20T10:55:45;100887.00;;;1.12;100.00
58622;BME280;44389;51.578;5.456;2022-11-20T10:58:41;100883.13;;;1.17;100.00
58622;BME280;44389;51.578;5.456;2022-11-20T11:01:16;100880.28;;;1.12;100.00
58622;BME280;44389;51.578;5.456;2022-11-20T11:03:42;100871.00;;;1.13;100.00
58622;BME280;44389;51.578;5.456;2022-11-20T11:08:42;100862.91;;;1.44;100.00
58622;BME280;44389;51.578;5.456;2022-11-20T11:11:20;100871.78;;;1.37;100.00
58622;BME280;44389;51.578;5.456;2022-11-20T11:13:46;100862.13;;;1.45;100.00
58622;BME280;44389;51.578;5.456;2022-11-20T11:16:26;100861.38;;;1.46;100.00
58622;BME280;44389;51.578;5.456;2022-11-20T11:19:02;100860.69;;;1.48;100.00
58622;BME280;44389;51.578;5.456;2022-11-20T11:21:28;100863.91;;;1.46;100.00
58622;BME280;44389;51.578;5.456;2022-11-20T11:24:01;100866.63;;;1.49;100.00
58622;BME280;44389;51.578;5.456;2022-11-20T11:26:27;100861.06;;;1.55;100.00
58622;BME280;44389;51.578;5.456;2022-11-20T11:28:57;100865.47;;;1.57;100.00
58622;BME280;44389;51.578;5.456;2022-11-20T11:31:27;100863.91;;;1.59;100.00
58622;BME280;44389;51.578;5.456;2022-11-20T11:34:14;100862.56;;;1.64;100.00
58622;BME280;44389;51.578;5.456;2022-11-20T11:36:40;100865.09;;;1.64;100.00
58622;BME280;44389;51.578;5.456;2022-11-20T11:39:11;100861.78;;;1.66;100.00
58622;BME280;44389;51.578;5.456;2022-11-20T11:41:39;100854.94;;;1.64;100.00
58622;BME280;44389;51.578;5.456;2022-11-20T11:44:15;100851.91;;;1.70;100.00
58622;BME280;44389;51.578;5.456;2022-11-20T11:47:01;100846.56;;;1.66;100.00
58622;BME280;44389;51.578;5.456;2022-11-20T11:49:28;100847.22;;;1.76;100.00
58622;BME280;44389;51.578;5.456;2022-11-20T11:52:12;100840.88;;;1.70;100.00
58622;BME280;44389;51.578;5.456;2022-11-20T11:54:46;100837.94;;;1.63;100.00
58622;BME280;44389;51.578;5.456;2022-11-20T12:02:25;100812.53;;;1.63;100.00
58622;BME280;44389;51.578;5.456;2022-11-20T12:04:59;100797.38;;;1.65;100.00
58622;BME280;44389;51.578;5.456;2022-11-20T12:08:04;100776.59;;;1.71;100.00
58622;BME280;44389;51.578;5.456;2022-11-20T12:13:20;100773.97;;;1.69;100.00
58622;BME280;44389;51.578;5.456;2022-11-20T12:15:47;100769.75;;;1.70;100.00
58622;BME280;44389;51.578;5.456;2022-11-20T12:18:16;100762.31;;;1.73;100.00
58622;BME280;44389;51.578;5.456;2022-11-20T12:21:00;100746.38;;;1.75;100.00
58622;BME280;44389;51.578;5.456;2022-11-20T12:26:05;100734.44;;;1.88;100.00
58622;BME280;44389;51.578;5.456;2022-11-20T12:28:49;100733.94;;;1.93;100.00
58622;BME280;44389;51.578;5.456;2022-11-20T12:34:16;100724.28;;;1.88;100.00
58622;BME280;44389;51.578;5.456;2022-11-20T12:37:04;100727.50;;;1.85;100.00
58622;BME280;44389;51.578;5.456;2022-11-20T12:39:48;100724.97;;;1.85;100.00
58622;BME280;44389;51.578;5.456;2022-11-20T12:47:55;100704.00;;;2.03;100.00
58622;BME280;44389;51.578;5.456;2022-11-20T12:53:29;100695.22;;;2.11;100.00
58622;BME280;44389;51.578;5.456;2022-11-20T12:56:17;100685.50;;;2.19;100.00
58622;BME280;44389;51.578;5.456;2022-11-20T12:59:03;100675.88;;;2.28;100.00
58622;BME280;44389;51.578;5.456;2022-11-20T13:01:46;100663.25;;;2.29;100.00
58622;BME280;44389;51.578;5.456;2022-11-20T13:06:46;100642.59;;;2.38;100.00
58622;BME280;44389;51.578;5.456;2022-11-20T13:09:14;100651.09;;;2.39;100.00
58622;BME280;44389;51.578;5.456;2022-11-20T13:11:45;100647.66;;;2.38;100.00
58622;BME280;44389;51.578;5.456;2022-11-20T13:14:37;100643.66;;;2.42;100.00
58622;BME280;44389;51.578;5.456;2022-11-20T13:17:17;100635.25;;;2.43;100.00
58622;BME280;44389;51.578;5.456;2022-11-20T13:20:02;100629.53;;;2.47;100.00
58622;BME280;44389;51.578;5.456;2022-11-20T13:22:49;100615.41;;;2.52;100.00
58622;BME280;44389;51.578;5.456;2022-11-20T13:25:32;100618.31;;;2.58;100.00
58622;BME280;44389;51.578;5.456;2022-11-20T13:28:00;100607.34;;;2.59;100.00
58622;BME280;44389;51.578;5.456;2022-11-20T13:30:29;100605.78;;;2.61;100.00
58622;BME280;44389;51.578;5.456;2022-11-20T13:33:22;100591.03;;;2.71;100.00
58622;BME280;44389;51.578;5.456;2022-11-20T13:35:57;100581.03;;;2.74;100.00
58622;BME280;44389;51.578;5.456;2022-11-20T13:38:23;100584.19;;;2.70;100.00
58622;BME280;44389;51.578;5.456;2022-11-20T13:40:59;100593.66;;;2.72;100.00
58622;BME280;44389;51.578;5.456;2022-11-20T13:43:47;100583.38;;;2.71;100.00